Time;durP1;ratioP1;P1;durP2;ratioP2;P2;SDS_P1;SDS_P2;PMS_P1;PMS_P2;Temp;Humidity;BMP_temperature;BMP_pressure;BME280_temperature;BME280_humidity;BME280_pressure;Samples;Min_cycle;Max_cycle;Signal;HPM_P1;HPM_P2
2023/08/19 00:00:58;;;;;;;27.67;25.27;;;20.30;99.90;;;;;;5082308;28;20478;-68
2023/08/19 00:03:23;;;;;;;26.65;23.90;;;20.30;99.90;;;;;;5082484;28;20355;-68
2023/08/19 00:05:49;;;;;;;28.15;25.55;;;20.30;99.90;;;;;;5082055;28;20066;-68
2023/08/19 00:08:15;;;;;;;26.58;24.08;;;20.40;99.90;;;;;;5066337;28;20075;-68
2023/08/19 00:10:41;;;;;;;28.13;25.42;;;20.40;99.90;;;;;;5082860;28;20040;-68
2023/08/19 00:13:06;;;;;;;25.90;23.48;;;20.50;99.90;;;;;;5098918;28;20086;-68
2023/08/19 00:15:32;;;;;;;26.92;24.20;;;20.50;99.90;;;;;;5064139;28;20050;-68
2023/08/19 00:18:00;;;;;;;27.98;25.25;;;20.50;99.90;;;;;;5083180;28;20046;-68
2023/08/19 00:20:28;;;;;;;26.45;24.05;;;20.60;99.90;;;;;;5065213;28;20090;-68
2023/08/19 00:22:57;;;;;;;26.55;24.05;;;20.50;99.90;;;;;;5068650;28;20390;-69
2023/08/19 00:25:24;;;;;;;26.40;23.80;;;20.60;99.90;;;;;;5068027;28;20071;-68
2023/08/19 00:27:52;;;;;;;26.08;23.88;;;20.60;99.90;;;;;;5088066;28;20078;-68
2023/08/19 00:30:18;;;;;;;24.48;22.30;;;20.60;99.90;;;;;;5073946;28;20040;-68
2023/08/19 00:32:44;;;;;;;26.60;23.98;;;20.60;99.90;;;;;;5069911;28;20090;-68
2023/08/19 00:35:10;;;;;;;25.92;23.23;;;20.60;99.90;;;;;;5088465;28;20044;-68
2023/08/19 00:37:36;;;;;;;24.08;21.77;;;20.60;99.90;;;;;;5058989;28;20055;-68
2023/08/19 00:40:05;;;;;;;25.58;23.25;;;20.60;99.90;;;;;;5091046;28;20711;-68
2023/08/19 00:42:31;;;;;;;22.52;20.58;;;20.60;99.90;;;;;;5086678;28;20037;-68
2023/08/19 00:44:56;;;;;;;23.27;21.17;;;20.60;99.90;;;;;;5090664;28;20032;-68
2023/08/19 00:47:24;;;;;;;24.23;22.23;;;20.60;99.90;;;;;;5088426;28;20036;-68
2023/08/19 00:49:50;;;;;;;23.95;21.65;;;20.70;99.90;;;;;;5070492;28;20036;-68
2023/08/19 00:52:16;;;;;;;23.08;20.88;;;20.50;99.90;;;;;;5088911;28;20699;-68
2023/08/19 00:54:42;;;;;;;22.50;20.20;;;20.60;99.90;;;;;;5089128;28;20059;-68
2023/08/19 00:57:08;;;;;;;23.77;21.48;;;20.60;99.90;;;;;;5090194;28;20036;-68
2023/08/19 00:59:33;;;;;;;22.00;19.67;;;20.60;99.90;;;;;;5069382;28;20490;-68
2023/08/19 01:01:59;;;;;;;22.38;20.33;;;20.60;99.90;;;;;;5084930;28;20162;-68
2023/08/19 01:04:25;;;;;;;23.38;21.23;;;20.60;99.90;;;;;;5088293;28;20032;-68
2023/08/19 01:07:20;;;;;;;22.58;20.48;;;20.60;99.90;;;;;;5085001;28;20050;-68
2023/08/19 01:09:55;;;;;;;22.07;19.97;;;20.60;99.90;;;;;;5086592;28;20052;-68
2023/08/19 01:12:38;;;;;;;20.65;18.83;;;20.60;99.90;;;;;;5072928;28;20053;-68
2023/08/19 01:15:06;;;;;;;23.85;21.55;;;20.50;99.90;;;;;;5068898;28;20052;-68
2023/08/19 01:17:33;;;;;;;23.00;21.05;;;20.50;99.90;;;;;;5070733;28;20071;-68
2023/08/19 01:19:59;;;;;;;21.98;19.73;;;20.40;99.90;;;;;;5086592;28;20080;-68
2023/08/19 01:22:38;;;;;;;20.58;18.77;;;20.50;99.90;;;;;;5069408;28;20032;-68
2023/08/19 01:25:06;;;;;;;20.23;18.23;;;20.50;99.90;;;;;;5070514;28;20476;-68
2023/08/19 01:27:31;;;;;;;19.95;18.27;;;20.40;99.90;;;;;;5087402;28;20445;-68
2023/08/19 01:29:57;;;;;;;19.85;18.13;;;20.40;99.90;;;;;;5087805;28;20024;-68
2023/08/19 01:32:24;;;;;;;19.90;18.20;;;20.30;99.90;;;;;;5087956;28;20036;-68
2023/08/19 01:34:50;;;;;;;20.40;18.40;;;20.40;99.90;;;;;;5087313;28;20401;-68
2023/08/19 01:37:43;;;;;;;20.75;18.95;;;20.30;99.90;;;;;;5087273;28;20072;-68
2023/08/19 01:40:13;;;;;;;20.88;18.77;;;20.30;99.90;;;;;;5068853;28;20045;-69
2023/08/19 01:42:40;;;;;;;19.25;17.48;;;20.20;99.90;;;;;;5088955;28;20039;-68
2023/08/19 01:45:07;;;;;;;18.15;16.52;;;20.30;99.90;;;;;;5068233;28;20044;-68
2023/08/19 01:47:36;;;;;;;16.88;15.57;;;20.20;99.90;;;;;;5087633;28;20390;-68
2023/08/19 01:50:02;;;;;;;23.58;21.10;;;20.20;99.90;;;;;;5067942;28;20048;-68
2023/08/19 01:52:27;;;;;;;17.80;16.15;;;20.00;99.90;;;;;;5070994;28;20194;-68
2023/08/19 01:54:53;;;;;;;20.98;18.77;;;20.10;99.90;;;;;;5083630;28;20499;-68
2023/08/19 01:57:18;;;;;;;18.85;17.13;;;20.00;99.90;;;;;;5069770;28;20497;-68
2023/08/19 01:59:44;;;;;;;18.05;16.58;;;20.10;99.90;;;;;;5084976;28;20513;-68
2023/08/19 02:02:09;;;;;;;18.00;16.50;;;19.90;99.90;;;;;;5091337;28;20080;-68
2023/08/19 02:04:35;;;;;;;18.35;16.42;;;19.90;99.90;;;;;;5090758;28;20036;-68
2023/08/19 02:07:01;;;;;;;17.65;15.85;;;19.80;99.90;;;;;;5068514;28;20452;-68
2023/08/19 02:09:28;;;;;;;16.70;15.23;;;19.90;99.90;;;;;;5087981;28;20588;-68
2023/08/19 02:11:54;;;;;;;16.10;14.60;;;19.90;99.90;;;;;;5086522;28;20062;-68
2023/08/19 02:14:20;;;;;;;20.55;16.17;;;19.90;99.90;;;;;;5067108;28;20045;-68
2023/08/19 02:16:46;;;;;;;18.48;16.75;;;19.80;99.90;;;;;;5087673;28;20050;-68
2023/08/19 02:19:11;;;;;;;21.02;19.17;;;19.80;99.90;;;;;;5085930;28;20028;-68
2023/08/19 02:21:37;;;;;;;19.08;17.52;;;19.80;99.90;;;;;;5084089;28;20392;-68
2023/08/19 02:24:03;;;;;;;19.02;17.23;;;19.80;99.90;;;;;;5087673;28;20111;-68
2023/08/19 02:26:28;;;;;;;23.08;20.80;;;19.80;99.90;;;;;;5085109;28;20281;-69
2023/08/19 02:28:54;;;;;;;21.52;19.63;;;19.80;99.90;;;;;;5087227;28;20032;-69
2023/08/19 02:31:19;;;;;;;20.98;19.27;;;19.80;99.90;;;;;;5085798;28;20039;-68
2023/08/19 02:33:45;;;;;;;21.50;19.58;;;19.90;99.90;;;;;;5086657;28;20034;-68
2023/08/19 02:36:12;;;;;;;20.20;18.35;;;19.90;99.90;;;;;;5082135;28;20036;-68
2023/08/19 02:38:37;;;;;;;20.63;18.58;;;19.80;99.90;;;;;;5067587;28;20085;-68
2023/08/19 02:41:03;;;;;;;21.58;19.58;;;19.80;99.90;;;;;;5066464;28;20036;-68
2023/08/19 02:43:28;;;;;;;20.65;18.38;;;19.90;99.90;;;;;;5068318;28;20050;-68
2023/08/19 02:45:54;;;;;;;21.02;18.95;;;19.80;99.90;;;;;;5083776;28;20068;-68
2023/08/19 02:48:20;;;;;;;21.13;18.98;;;19.90;99.90;;;;;;5081937;28;20036;-68
2023/08/19 02:50:45;;;;;;;21.52;19.42;;;19.90;99.90;;;;;;5085884;28;20054;-68
2023/08/19 02:53:11;;;;;;;22.70;20.67;;;20.00;99.90;;;;;;5087723;28;20044;-68
2023/08/19 02:55:41;;;;;;;21.42;19.27;;;20.00;99.90;;;;;;5068292;28;20040;-68
2023/08/19 02:58:07;;;;;;;20.33;18.40;;;19.90;99.90;;;;;;5065804;28;20046;-68
2023/08/19 03:00:36;;;;;;;21.60;19.80;;;20.00;99.90;;;;;;5067231;28;20467;-68
2023/08/19 03:03:05;;;;;;;21.55;19.65;;;20.00;99.90;;;;;;5067380;28;20550;-68
2023/08/19 03:05:30;;;;;;;21.25;19.23;;;20.10;99.90;;;;;;5067738;28;20068;-68
2023/08/19 03:07:56;;;;;;;20.15;18.15;;;20.10;99.90;;;;;;5085080;28;20078;-68
2023/08/19 03:10:21;;;;;;;19.60;17.90;;;20.10;99.90;;;;;;5101737;27;20052;-68
2023/08/19 03:12:47;;;;;;;19.75;17.83;;;20.10;99.90;;;;;;5086544;28;20047;-68
2023/08/19 03:15:12;;;;;;;20.02;18.08;;;20.20;99.90;;;;;;5085579;28;20088;-68
2023/08/19 03:17:38;;;;;;;19.42;17.73;;;20.20;99.90;;;;;;5085509;28;20064;-68
2023/08/19 03:20:05;;;;;;;18.73;17.02;;;20.20;99.90;;;;;;5084152;28;20031;-68
2023/08/19 03:22:31;;;;;;;18.67;16.95;;;20.20;99.90;;;;;;5085530;28;20041;-68
2023/08/19 03:24:56;;;;;;;18.60;16.55;;;20.20;99.90;;;;;;5104867;27;20517;-68
2023/08/19 03:27:22;;;;;;;19.05;17.25;;;20.20;99.90;;;;;;5084240;28;20044;-68
2023/08/19 03:29:48;;;;;;;20.00;18.10;;;20.30;99.90;;;;;;5099665;27;20478;-68
2023/08/19 03:32:13;;;;;;;21.33;18.77;;;20.20;99.90;;;;;;5105489;27;20185;-68
2023/08/19 03:34:39;;;;;;;19.23;17.40;;;20.20;99.90;;;;;;5105706;28;20051;-68
2023/08/19 03:37:05;;;;;;;18.17;16.55;;;20.20;99.90;;;;;;5104470;28;20047;-68
2023/08/19 03:39:30;;;;;;;18.17;16.63;;;20.10;99.90;;;;;;5087836;28;20035;-68
2023/08/19 03:41:56;;;;;;;19.40;17.42;;;20.20;99.90;;;;;;5085698;28;20098;-68
2023/08/19 03:44:21;;;;;;;18.20;16.52;;;20.10;99.90;;;;;;5117999;27;20046;-68
2023/08/19 03:46:47;;;;;;;19.35;17.55;;;20.10;99.90;;;;;;5086719;28;20059;-68
2023/08/19 03:49:13;;;;;;;17.65;15.85;;;20.00;99.90;;;;;;5088221;28;20044;-68
2023/08/19 03:51:38;;;;;;;17.27;15.82;;;20.20;99.90;;;;;;5087717;28;20043;-68
2023/08/19 03:54:04;;;;;;;17.63;16.02;;;20.10;99.90;;;;;;5084783;28;20035;-68
2023/08/19 03:56:30;;;;;;;17.88;15.98;;;20.10;99.90;;;;;;5083804;28;20031;-68
2023/08/19 03:58:55;;;;;;;18.25;16.13;;;20.10;99.90;;;;;;5103471;28;20035;-68
2023/08/19 04:01:21;;;;;;;16.98;15.48;;;20.10;99.90;;;;;;5105105;28;20040;-68
2023/08/19 04:03:47;;;;;;;16.90;15.40;;;20.00;99.90;;;;;;5120760;28;20044;-68
2023/08/19 04:06:13;;;;;;;15.65;14.32;;;20.10;99.90;;;;;;5104368;28;20023;-68
2023/08/19 04:08:38;;;;;;;16.25;14.50;;;20.00;99.90;;;;;;5086971;28;20371;-68
2023/08/19 04:11:05;;;;;;;15.63;14.20;;;20.00;99.90;;;;;;5085400;28;20050;-68
2023/08/19 04:13:30;;;;;;;16.55;15.15;;;20.00;99.90;;;;;;5086032;28;20074;-68
2023/08/19 04:16:06;;;;;;;17.63;16.02;;;20.00;99.90;;;;;;5086737;28;20071;-68
2023/08/19 04:18:33;;;;;;;19.23;15.05;;;20.00;99.90;;;;;;5100837;28;20466;-68
2023/08/19 04:21:03;;;;;;;16.52;14.93;;;19.90;99.90;;;;;;5104159;28;20043;-68
2023/08/19 04:23:29;;;;;;;15.65;14.38;;;20.00;99.90;;;;;;5086199;28;20039;-68
2023/08/19 04:25:55;;;;;;;17.25;15.48;;;20.00;99.90;;;;;;5084312;28;20058;-68
2023/08/19 04:28:21;;;;;;;17.85;14.98;;;20.00;99.90;;;;;;5102755;28;20047;-68
2023/08/19 04:30:47;;;;;;;15.00;13.82;;;20.10;99.90;;;;;;5104264;28;20842;-68
2023/08/19 04:33:14;;;;;;;16.35;14.93;;;20.10;99.90;;;;;;5105364;28;20089;-69
2023/08/19 04:35:40;;;;;;;16.50;14.90;;;20.10;99.90;;;;;;5103940;28;20044;-68
2023/08/19 04:38:05;;;;;;;17.10;14.43;;;20.10;99.90;;;;;;5104270;28;20448;-68
2023/08/19 04:40:31;;;;;;;15.90;13.30;;;20.10;99.90;;;;;;5102586;28;20044;-68
2023/08/19 04:42:57;;;;;;;16.55;14.95;;;20.20;99.90;;;;;;5104321;28;20023;-68
2023/08/19 04:45:24;;;;;;;14.98;13.48;;;20.20;99.90;;;;;;5102187;28;20888;-67
2023/08/19 04:47:50;;;;;;;15.55;13.98;;;20.20;99.90;;;;;;5082912;28;20071;-68
2023/08/19 04:50:16;;;;;;;15.00;13.70;;;20.30;99.90;;;;;;5101925;28;20036;-68
2023/08/19 04:52:41;;;;;;;17.15;13.10;;;20.40;99.90;;;;;;5103677;28;20073;-68
2023/08/19 04:55:08;;;;;;;14.07;12.85;;;20.40;99.90;;;;;;5104557;28;20035;-68
2023/08/19 04:57:34;;;;;;;13.88;12.75;;;20.50;99.90;;;;;;5100130;28;20037;-68
2023/08/19 04:59:59;;;;;;;14.52;13.23;;;20.50;99.90;;;;;;5083535;28;20051;-68
2023/08/19 05:02:25;;;;;;;13.98;12.63;;;20.60;99.90;;;;;;5103496;28;20043;-68
2023/08/19 05:04:50;;;;;;;13.75;12.30;;;20.70;99.90;;;;;;5103198;28;20040;-68
2023/08/19 05:07:16;;;;;;;13.73;12.30;;;20.70;99.90;;;;;;5085700;28;20470;-68
2023/08/19 05:09:42;;;;;;;12.50;11.07;;;20.80;99.90;;;;;;5087126;28;20650;-68
2023/08/19 05:12:07;;;;;;;12.25;11.13;;;20.90;99.90;;;;;;5106134;28;20095;-68
2023/08/19 05:14:33;;;;;;;13.52;12.15;;;20.90;99.90;;;;;;5109031;28;20088;-68
2023/08/19 05:16:59;;;;;;;12.40;11.20;;;21.00;99.90;;;;;;5086713;28;20043;-68
2023/08/19 05:19:25;;;;;;;11.82;10.73;;;21.30;99.90;;;;;;5107906;28;20039;-68
2023/08/19 05:21:51;;;;;;;14.77;10.43;;;21.50;99.90;;;;;;5090454;28;20061;-68
2023/08/19 05:24:18;;;;;;;11.77;10.65;;;21.60;99.90;;;;;;5076217;28;20040;-68
2023/08/19 05:26:44;;;;;;;12.05;10.43;;;21.60;99.90;;;;;;5085864;28;20133;-68
2023/08/19 05:29:13;;;;;;;10.43;9.52;;;21.60;99.90;;;;;;5103285;28;20042;-68
2023/08/19 05:31:39;;;;;;;12.85;10.77;;;21.50;99.90;;;;;;5089301;28;20080;-68
2023/08/19 05:34:07;;;;;;;12.30;10.13;;;21.40;99.90;;;;;;5089597;28;20058;-68
2023/08/19 05:36:33;;;;;;;15.02;10.30;;;21.40;99.90;;;;;;5089148;28;20050;-68
2023/08/19 05:38:58;;;;;;;11.13;10.05;;;21.30;99.90;;;;;;5093996;28;20028;-68
2023/08/19 05:41:25;;;;;;;10.95;10.02;;;21.20;99.90;;;;;;5106075;28;20443;-68
2023/08/19 05:43:50;;;;;;;15.82;10.02;;;21.20;99.90;;;;;;5106002;28;20182;-68
2023/08/19 05:46:16;;;;;;;12.00;10.60;;;21.20;99.90;;;;;;5106927;28;20154;-68
2023/08/19 05:48:41;;;;;;;14.30;10.70;;;21.20;99.90;;;;;;5105138;28;20032;-68
2023/08/19 05:51:07;;;;;;;14.38;10.95;;;21.20;99.90;;;;;;5088674;28;20048;-68
2023/08/19 05:53:33;;;;;;;10.80;9.80;;;21.20;99.90;;;;;;5088968;28;20032;-68
2023/08/19 05:55:58;;;;;;;10.98;9.93;;;21.10;99.90;;;;;;5107331;28;20403;-67
2023/08/19 05:58:24;;;;;;;12.73;9.73;;;21.10;99.90;;;;;;5073259;28;20126;-68
2023/08/19 06:00:57;;;;;;;10.45;9.55;;;21.10;99.90;;;;;;5120992;27;20054;-68
2023/08/19 06:03:23;;;;;;;11.13;10.13;;;21.20;99.90;;;;;;5106009;28;20040;-68
2023/08/19 06:05:48;;;;;;;10.20;9.40;;;21.20;99.90;;;;;;5108404;28;20500;-68
2023/08/19 06:08:14;;;;;;;11.75;9.65;;;21.20;99.90;;;;;;5090558;28;20035;-68
2023/08/19 06:10:43;;;;;;;9.90;8.73;;;21.20;99.90;;;;;;5107615;28;20043;-68
2023/08/19 06:13:09;;;;;;;9.57;8.68;;;21.20;99.90;;;;;;5107672;27;20052;-68
2023/08/19 06:15:35;;;;;;;10.93;9.80;;;21.20;99.90;;;;;;5082874;28;20044;-69
2023/08/19 06:18:01;;;;;;;11.80;9.05;;;21.40;99.90;;;;;;5085017;28;20394;-68
2023/08/19 06:20:26;;;;;;;10.20;9.30;;;21.30;99.90;;;;;;5099491;27;20153;-69
2023/08/19 06:22:52;;;;;;;10.23;9.10;;;21.30;99.90;;;;;;5103434;27;20031;-68
2023/08/19 06:25:17;;;;;;;9.77;8.70;;;21.40;99.90;;;;;;5086584;28;20406;-68
2023/08/19 06:27:43;;;;;;;12.00;8.35;;;21.30;99.90;;;;;;5071053;28;20042;-68
2023/08/19 06:30:09;;;;;;;9.73;8.75;;;21.40;99.90;;;;;;5105781;28;20036;-68
2023/08/19 06:32:35;;;;;;;10.52;9.45;;;21.40;99.90;;;;;;5120143;27;20044;-68
2023/08/19 06:35:03;;;;;;;9.93;8.55;;;21.40;99.90;;;;;;5104348;28;20043;-68
2023/08/19 06:37:31;;;;;;;9.82;8.93;;;21.30;99.90;;;;;;5103442;28;20039;-68
2023/08/19 06:40:00;;;;;;;11.52;8.57;;;21.30;99.90;;;;;;5090280;28;20039;-68
2023/08/19 06:42:26;;;;;;;9.13;8.23;;;21.30;99.90;;;;;;5106185;28;20027;-68
2023/08/19 06:44:58;;;;;;;11.02;8.30;;;21.40;99.90;;;;;;5106321;28;20122;-68
2023/08/19 06:47:25;;;;;;;9.70;8.55;;;21.40;99.90;;;;;;5103701;28;20588;-68
2023/08/19 06:49:51;;;;;;;9.43;7.53;;;21.40;99.90;;;;;;5104657;28;20442;-68
2023/08/19 06:52:17;;;;;;;8.98;8.07;;;21.40;99.90;;;;;;5103452;28;20028;-68
2023/08/19 06:54:42;;;;;;;8.73;7.95;;;21.50;99.90;;;;;;5104602;28;20031;-68
2023/08/19 06:57:15;;;;;;;10.80;8.27;;;21.50;99.90;;;;;;5084907;28;20039;-68
2023/08/19 06:59:44;;;;;;;8.27;7.47;;;21.50;99.90;;;;;;5102780;28;20036;-68
2023/08/19 07:02:12;;;;;;;9.07;7.95;;;21.60;99.90;;;;;;5105901;28;20043;-68
2023/08/19 07:04:41;;;;;;;11.15;7.22;;;21.60;99.90;;;;;;5104532;28;20043;-68
2023/08/19 07:07:08;;;;;;;8.23;7.45;;;21.70;99.90;;;;;;5104280;28;20122;-68
2023/08/19 07:09:34;;;;;;;10.23;7.40;;;21.70;99.90;;;;;;5105967;28;20042;-68
2023/08/19 07:12:01;;;;;;;8.10;7.32;;;21.70;99.90;;;;;;5084932;28;20071;-68
2023/08/19 07:14:27;;;;;;;16.58;7.47;;;21.90;99.90;;;;;;5086949;28;20043;-68
2023/08/19 07:16:55;;;;;;;10.48;7.82;;;21.80;99.90;;;;;;5105844;28;20130;-68
2023/08/19 07:19:27;;;;;;;8.27;7.20;;;21.80;99.90;;;;;;5106090;28;20075;-68
2023/08/19 07:21:55;;;;;;;7.78;7.07;;;21.90;99.90;;;;;;5105666;28;20046;-68
2023/08/19 07:24:21;;;;;;;9.68;7.47;;;21.90;99.90;;;;;;5103990;28;20036;-68
2023/08/19 07:26:48;;;;;;;11.75;7.38;;;22.00;99.90;;;;;;5105155;28;20096;-68
2023/08/19 07:29:14;;;;;;;8.05;7.28;;;22.00;99.90;;;;;;5103774;28;20027;-68
2023/08/19 07:31:41;;;;;;;9.10;8.18;;;22.10;99.90;;;;;;5084427;28;20080;-68
2023/08/19 07:34:07;;;;;;;11.52;6.50;;;22.20;99.90;;;;;;5084837;28;20036;-68
2023/08/19 07:36:33;;;;;;;11.57;6.47;;;22.20;99.90;;;;;;5085013;28;20058;-68
2023/08/19 07:38:59;;;;;;;10.70;6.40;;;22.20;99.90;;;;;;5103959;28;20110;-68
2023/08/19 07:41:25;;;;;;;7.05;6.40;;;22.30;99.90;;;;;;5104648;28;20058;-68
2023/08/19 07:43:51;;;;;;;8.65;6.03;;;22.30;99.90;;;;;;5105198;28;20102;-68
2023/08/19 07:46:17;;;;;;;10.40;6.00;;;22.50;99.90;;;;;;5102652;28;20474;-68
2023/08/19 07:48:44;;;;;;;8.00;5.97;;;22.50;99.90;;;;;;5103271;28;20038;-68
2023/08/19 07:51:09;;;;;;;10.15;6.30;;;22.50;99.90;;;;;;5090322;28;20036;-68
2023/08/19 07:53:35;;;;;;;7.93;6.80;;;22.60;99.90;;;;;;5106156;28;20130;-68
2023/08/19 07:56:00;;;;;;;8.68;5.97;;;22.70;99.90;;;;;;5104586;28;20081;-68
2023/08/19 07:58:26;;;;;;;10.10;6.35;;;22.70;99.90;;;;;;5103832;28;20123;-68
2023/08/19 08:00:52;;;;;;;7.30;5.75;;;22.80;99.90;;;;;;5105465;28;20039;-68
2023/08/19 08:03:18;;;;;;;7.10;5.47;;;22.90;99.90;;;;;;5086052;28;20031;-68
2023/08/19 08:05:43;;;;;;;9.68;5.57;;;22.90;99.90;;;;;;5086110;28;20039;-68
2023/08/19 08:08:09;;;;;;;10.63;5.10;;;23.00;99.90;;;;;;5104470;28;20050;-68
2023/08/19 08:10:34;;;;;;;5.63;4.50;;;23.10;99.90;;;;;;5103381;28;20072;-69
2023/08/19 08:13:00;;;;;;;5.20;4.75;;;23.10;99.90;;;;;;5106319;28;20032;-68
2023/08/19 08:15:26;;;;;;;10.18;4.95;;;23.10;99.90;;;;;;5102762;28;20032;-69
2023/08/19 08:17:52;;;;;;;5.78;4.53;;;23.10;99.90;;;;;;5083201;28;20083;-69
2023/08/19 08:20:17;;;;;;;5.68;5.03;;;23.10;99.90;;;;;;5103680;28;20655;-68
2023/08/19 08:22:44;;;;;;;6.72;4.50;;;23.20;99.90;;;;;;5086952;28;20062;-68
2023/08/19 08:25:10;;;;;;;7.03;5.60;;;23.30;99.90;;;;;;5103565;28;20036;-68
2023/08/19 08:27:36;;;;;;;7.82;4.65;;;23.40;99.90;;;;;;5086609;28;20062;-68
2023/08/19 08:30:01;;;;;;;6.65;4.88;;;23.50;99.90;;;;;;5102417;28;20039;-69
2023/08/19 08:32:27;;;;;;;8.75;4.50;;;23.40;99.90;;;;;;5103444;28;20122;-68
2023/08/19 08:34:52;;;;;;;5.25;4.43;;;23.50;99.90;;;;;;5085054;28;20054;-69
2023/08/19 08:37:19;;;;;;;8.52;4.60;;;23.60;99.90;;;;;;5101781;28;20039;-68
2023/08/19 08:39:45;;;;;;;9.63;5.00;;;23.60;99.90;;;;;;5086147;28;20036;-68
2023/08/19 08:42:11;;;;;;;5.93;4.50;;;23.70;99.90;;;;;;5086183;28;20465;-68
2023/08/19 08:44:37;;;;;;;11.65;4.10;;;23.80;99.90;;;;;;5088973;28;20681;-68
2023/08/19 08:47:04;;;;;;;4.68;4.10;;;23.90;99.90;;;;;;5108953;28;20077;-68
2023/08/19 08:49:30;;;;;;;8.07;3.90;;;24.10;99.90;;;;;;5108136;28;20126;-68
2023/08/19 08:51:57;;;;;;;4.95;3.50;;;24.30;99.90;;;;;;5107513;28;20039;-69
2023/08/19 08:54:23;;;;;;;6.40;3.60;;;24.40;99.90;;;;;;5122944;27;20036;-69
2023/08/19 08:56:49;;;;;;;9.73;4.45;;;24.60;99.90;;;;;;5108110;28;20089;-68
2023/08/19 08:59:16;;;;;;;8.10;4.18;;;24.70;99.90;;;;;;5108228;28;20039;-69
2023/08/19 09:01:45;;;;;;;9.00;4.35;;;24.90;99.90;;;;;;5089111;28;20043;-69
2023/08/19 09:04:14;;;;;;;5.20;3.58;;;25.00;99.90;;;;;;5090465;28;20050;-68
2023/08/19 09:06:42;;;;;;;7.07;4.28;;;25.20;99.90;;;;;;5089381;28;20040;-68
2023/08/19 09:09:12;;;;;;;7.95;3.90;;;25.30;99.90;;;;;;5105142;28;20035;-69
2023/08/19 09:11:45;;;;;;;6.32;4.10;;;25.30;99.90;;;;;;5074609;28;20036;-68
2023/08/19 09:14:43;;;;;;;8.52;5.00;;;25.40;99.90;;;;;;5106705;28;20040;-68
2023/08/19 09:17:10;;;;;;;7.70;4.28;;;25.30;99.90;;;;;;5107568;28;20035;-68
2023/08/19 09:19:35;;;;;;;6.03;4.32;;;25.30;99.90;;;;;;5105634;28;20036;-68
2023/08/19 09:22:16;;;;;;;6.10;4.10;;;25.40;99.90;;;;;;5108848;28;20039;-68
2023/08/19 09:24:42;;;;;;;7.82;4.38;;;25.30;99.90;;;;;;5088838;28;20504;-68
2023/08/19 09:27:08;;;;;;;8.60;4.80;;;25.30;99.90;;;;;;5105878;28;20505;-68
2023/08/19 09:29:34;;;;;;;7.93;4.68;;;25.30;99.90;;;;;;5084749;28;20058;-68
2023/08/19 09:32:00;;;;;;;6.72;5.22;;;25.30;99.90;;;;;;5087871;28;20062;-68
2023/08/19 09:34:26;;;;;;;6.68;5.20;;;25.40;99.90;;;;;;5088156;28;20081;-68
2023/08/19 09:36:56;;;;;;;7.13;4.53;;;25.40;99.90;;;;;;5107273;28;20827;-69
2023/08/19 09:39:25;;;;;;;9.77;4.97;;;25.50;99.90;;;;;;5085404;28;20040;-68
2023/08/19 09:41:57;;;;;;;5.22;4.72;;;25.60;99.90;;;;;;5105292;28;20096;-68
2023/08/19 09:44:22;;;;;;;10.25;4.35;;;25.60;99.90;;;;;;5105676;28;20068;-68
2023/08/19 09:46:48;;;;;;;4.30;3.90;;;25.70;99.90;;;;;;5121262;27;20118;-69
2023/08/19 09:49:21;;;;;;;10.93;4.57;;;25.80;99.90;;;;;;5103751;28;20519;-68
2023/08/19 09:51:54;;;;;;;5.93;4.32;;;25.80;99.90;;;;;;5102994;28;20044;-69
2023/08/19 09:54:20;;;;;;;10.40;4.88;;;25.90;99.90;;;;;;5105323;28;20047;-68
2023/08/19 09:56:53;;;;;;;6.78;4.60;;;25.90;99.90;;;;;;5089717;28;20066;-68
2023/08/19 09:59:19;;;;;;;9.60;4.68;;;25.80;99.90;;;;;;5092263;28;20123;-69
2023/08/19 10:01:44;;;;;;;19.13;6.00;;;25.70;99.90;;;;;;5107067;28;20418;-69
2023/08/19 10:04:10;;;;;;;10.02;5.70;;;25.60;99.90;;;;;;5105805;28;20093;-69
2023/08/19 10:06:39;;;;;;;9.20;4.90;;;25.50;99.90;;;;;;5084385;28;20063;-69
2023/08/19 10:09:08;;;;;;;12.43;5.50;;;25.30;99.90;;;;;;5123365;27;20173;-69
2023/08/19 10:11:37;;;;;;;5.53;4.50;;;25.30;99.90;;;;;;5106916;28;20109;-69
2023/08/19 10:14:04;;;;;;;12.50;7.10;;;25.00;99.90;;;;;;5104459;28;20035;-69
2023/08/19 10:16:38;;;;;;;8.55;5.55;;;25.10;99.90;;;;;;5106055;28;20035;-69
2023/08/19 10:19:06;;;;;;;8.10;5.80;;;24.80;99.90;;;;;;5084929;28;20031;-69
2023/08/19 10:21:32;;;;;;;7.03;5.53;;;24.70;99.90;;;;;;5084450;28;20036;-69
2023/08/19 10:23:59;;;;;;;7.30;5.85;;;24.80;99.90;;;;;;5122538;27;20400;-69
2023/08/19 10:26:25;;;;;;;9.15;6.72;;;24.70;99.90;;;;;;5104621;28;20045;-69
2023/08/19 10:29:05;;;;;;;7.55;6.00;;;24.70;99.90;;;;;;5104372;28;20035;-69
2023/08/19 10:31:32;;;;;;;12.18;6.13;;;24.70;99.90;;;;;;5091876;28;20122;-69
2023/08/19 10:33:57;;;;;;;13.55;6.72;;;24.70;99.90;;;;;;5084757;28;20043;-69
2023/08/19 10:36:28;;;;;;;6.35;5.75;;;24.70;99.90;;;;;;5103425;28;20051;-69
2023/08/19 10:38:56;;;;;;;8.30;6.97;;;24.60;99.90;;;;;;5104082;28;20083;-69
2023/08/19 10:41:33;;;;;;;8.18;6.53;;;24.70;99.90;;;;;;5105383;28;20042;-69
2023/08/19 10:44:00;;;;;;;9.48;7.00;;;24.70;99.90;;;;;;5086297;28;20044;-69
2023/08/19 10:46:36;;;;;;;10.20;6.88;;;24.60;99.90;;;;;;5105340;28;20035;-69
2023/08/19 10:49:17;;;;;;;7.65;6.93;;;24.70;99.90;;;;;;5090798;28;20142;-69
2023/08/19 10:51:47;;;;;;;9.32;6.60;;;24.80;99.90;;;;;;5085445;28;20134;-69
2023/08/19 10:54:13;;;;;;;10.75;7.78;;;24.90;99.90;;;;;;5119608;27;20116;-69
2023/08/19 10:57:10;;;;;;;9.05;6.93;;;24.90;99.90;;;;;;5089436;28;20075;-68
2023/08/19 10:59:36;;;;;;;13.45;8.10;;;25.00;99.90;;;;;;5123887;27;20039;-68
2023/08/19 11:02:04;;;;;;;10.32;8.70;;;25.00;99.90;;;;;;5104427;28;20839;-68
2023/08/19 11:04:31;;;;;;;12.95;8.15;;;25.10;99.90;;;;;;5088156;28;20078;-68
2023/08/19 11:06:57;;;;;;;9.73;8.07;;;25.20;99.90;;;;;;5087695;28;20039;-69
2023/08/19 11:09:26;;;;;;;9.10;7.28;;;25.40;99.90;;;;;;5106074;28;20043;-69
2023/08/19 11:11:56;;;;;;;12.05;8.20;;;25.50;99.90;;;;;;5084314;28;20044;-68
2023/08/19 11:14:23;;;;;;;11.30;8.25;;;25.70;99.90;;;;;;5087695;28;20047;-69
2023/08/19 11:16:53;;;;;;;8.13;7.32;;;26.00;99.90;;;;;;5104874;28;20043;-68
2023/08/19 11:19:19;;;;;;;8.68;7.82;;;26.20;99.90;;;;;;5087634;28;20031;-69
2023/08/19 11:21:45;;;;;;;8.63;7.82;;;26.50;99.90;;;;;;5119558;27;20050;-68
2023/08/19 11:24:11;;;;;;;9.77;8.93;;;26.50;99.90;;;;;;5087599;28;20032;-68
2023/08/19 11:26:42;;;;;;;12.05;10.23;;;26.50;99.90;;;;;;5103633;28;20039;-68
2023/08/19 11:29:08;;;;;;;11.23;10.02;;;26.50;99.90;;;;;;5101843;28;20031;-68
2023/08/19 11:31:38;;;;;;;9.93;9.00;;;26.50;99.90;;;;;;5087097;28;20046;-68
2023/08/19 11:34:10;;;;;;;13.80;9.80;;;26.40;99.90;;;;;;5102376;28;20437;-69
2023/08/19 11:36:36;;;;;;;11.15;10.05;;;26.50;99.90;;;;;;5100454;28;20036;-68
2023/08/19 11:39:05;;;;;;;10.38;9.25;;;26.50;99.90;;;;;;5105432;28;20032;-68
2023/08/19 11:41:32;;;;;;;11.68;9.95;;;26.60;99.90;;;;;;5102925;28;20039;-68
2023/08/19 11:43:58;;;;;;;13.52;11.07;;;26.60;99.90;;;;;;5105801;28;20043;-68
2023/08/19 11:46:30;;;;;;;14.30;13.00;;;26.70;99.90;;;;;;5103050;28;20035;-68
2023/08/19 11:48:57;;;;;;;13.27;11.85;;;26.80;99.90;;;;;;5105660;28;20072;-69
2023/08/19 11:51:27;;;;;;;15.32;11.40;;;27.00;99.90;;;;;;5087154;28;20485;-68
2023/08/19 11:53:54;;;;;;;14.95;12.50;;;27.10;99.90;;;;;;5103840;28;20035;-69
2023/08/19 11:56:20;;;;;;;15.70;13.63;;;27.20;99.90;;;;;;5101143;28;20091;-68
2023/08/19 11:58:51;;;;;;;14.07;12.75;;;27.30;99.90;;;;;;5105074;28;20122;-68
2023/08/19 12:01:21;;;;;;;14.27;12.85;;;27.30;99.90;;;;;;5106031;28;20062;-69
2023/08/19 12:03:48;;;;;;;13.52;12.38;;;27.20;99.90;;;;;;5105132;28;20028;-69
2023/08/19 12:06:15;;;;;;;14.30;12.82;;;27.20;99.90;;;;;;5106354;28;20486;-69
2023/08/19 12:08:42;;;;;;;16.73;14.73;;;27.20;99.90;;;;;;5103715;28;20529;-68
2023/08/19 12:11:09;;;;;;;15.10;13.75;;;27.20;99.90;;;;;;5084449;28;20068;-69
2023/08/19 12:13:35;;;;;;;15.75;14.25;;;27.30;99.90;;;;;;5103072;28;20436;-69
2023/08/19 12:16:01;;;;;;;15.85;14.32;;;27.30;99.90;;;;;;5120112;27;20358;-69
2023/08/19 12:18:30;;;;;;;14.93;13.40;;;27.30;99.90;;;;;;5092957;28;20047;-69
2023/08/19 12:20:56;;;;;;;17.42;15.82;;;27.20;99.90;;;;;;5105616;28;20582;-69
2023/08/19 12:23:21;;;;;;;20.10;16.65;;;27.10;99.90;;;;;;5091321;28;20047;-69
2023/08/19 12:25:58;;;;;;;22.00;19.83;;;27.10;99.90;;;;;;5123627;27;20122;-69
2023/08/19 12:28:24;;;;;;;25.95;23.55;;;26.90;99.90;;;;;;5110566;28;20035;-69
2023/08/19 12:30:51;;;;;;;25.80;23.33;;;26.70;99.90;;;;;;5122323;27;20039;-69
2023/08/19 12:33:18;;;;;;;27.60;24.70;;;26.50;99.90;;;;;;5123479;27;20038;-69